Data for 11/26/2012

Time Sea-Level Adjusted Pressure Absolute Pressure Temperature Relative Humidity Dew Point   
(mb) (inHg) (mb) (inHg) (C) (F) (%) (C) (F)
00:05 1023 30.21 853 25.19 -4.1 24.6 66 -9.5 14.8
00:10 1023 30.21 853 25.19 -4.4 24.1 67 -9.5 14.8
00:15 1023 30.21 853 25.19 -4.5 23.9 67 -9.8 14.4
00:20 1023 30.21 853 25.19 -4.3 24.3 66 -9.8 14.4
00:25 1023 30.21 853 25.19 -4.1 24.6 66 -9.6 14.8
00:30 1023 30.21 853 25.19 -4.2 24.4 68 -9.4 15.2
00:35 1023 30.21 853 25.19 -4.5 24 69 -9.3 15.3
00:40 1023 30.21 853 25.19 -4.5 23.9 70 -9.2 15.4
00:45 1023 30.21 853 25.19 -4.6 23.8 72 -8.9 15.9
00:50 1023 30.21 853 25.19 -4.6 23.7 73 -8.8 16.1
00:55 1023 30.21 853 25.19 -4.5 23.9 72 -8.9 16
01:00 1024 30.24 853 25.19 -4.4 24 71 -8.9 15.9
01:05 1024 30.24 853 25.19 -4.4 24 72 -8.7 16.4
01:10 1023 30.21 853 25.19 -4.5 23.9 71 -8.9 15.9
01:15 1023 30.21 853 25.19 -4.5 23.9 70 -9.1 15.7
01:20 1023 30.21 853 25.19 -4.6 23.8 71 -9.1 15.7
01:25 1024 30.24 853 25.19 -4.7 23.5 71 -9.3 15.3
01:30 1024 30.24 853 25.19 -4.9 23.2 71 -9.3 15.2
01:35 1024 30.24 853 25.19 -4.8 23.3 71 -9.4 15.1
01:40 1024 30.24 853 25.19 -4.9 23.1 71 -9.4 15.1
01:45 1024 30.24 853 25.19 -5.2 22.7 73 -9.3 15.2
01:50 1024 30.24 853 25.19 -5.4 22.3 73 -9.5 15
01:55 1024 30.24 853 25.19 -5.5 22.1 74 -9.5 15
02:00 1024 30.24 853 25.19 -5.8 21.6 76 -9.4 15.1
02:05 1024 30.24 853 25.19 -6.1 21.1 77 -9.5 15
02:10 1024 30.24 853 25.19 -6.4 20.5 78 -9.5 14.9
02:15 1024 30.24 853 25.19 -6.6 20.2 79 -9.6 14.7
02:20 1024 30.24 853 25.19 -6.7 19.9 80 -9.7 14.6
02:25 1024 30.24 853 25.19 -6.7 19.9 80 -9.7 14.6
02:30 1024 30.24 853 25.19 -6.7 19.9 80 -9.7 14.6
02:35 1024 30.24 853 25.19 -6.8 19.7 80 -9.7 14.5
02:40 1024 30.24 853 25.19 -6.8 19.8 79 -9.8 14.4
02:45 1024 30.24 853 25.19 -6.9 19.7 79 -9.9 14.3
02:50 1024 30.24 853 25.19 -6.9 19.6 79 -10 14.1
02:55 1024 30.24 853 25.19 -7 19.4 79 -10 14
03:00 1024 30.24 853 25.19 -7.1 19.3 79 -10.2 13.7
03:05 1024 30.24 853 25.19 -7.1 19.3 79 -10.1 13.9
03:10 1024 30.24 853 25.19 -7.2 19.1 80 -10.1 13.8
03:15 1024 30.24 853 25.19 -7.1 19.2 78 -10.3 13.5
03:20 1024 30.24 853 25.19 -6.8 19.7 76 -10.3 13.4
03:25 1024 30.24 853 25.19 -6.6 20.1 76 -10.3 13.5
03:30 1024 30.24 853 25.19 -6.7 19.9 76 -10.3 13.4
03:35 1024 30.24 853 25.19 -6.8 19.8 75 -10.4 13.2
03:40 1024 30.24 853 25.19 -6.8 19.7 76 -10.4 13.4
03:45 1024 30.24 853 25.19 -7.1 19.2 77 -10.5 13
03:50 1024 30.24 853 25.19 -7.4 18.7 79 -10.4 13.3
03:55 1024 30.24 853 25.19 -7.8 17.9 81 -10.6 12.9
04:00 1024 30.24 853 25.19 -8.1 17.5 81 -10.8 12.5
04:05 1024 30.24 853 25.19 -8.1 17.5 79 -11.1 12.1
04:10 1024 30.24 853 25.19 -8.2 17.3 80 -11 12.1
04:15 1024 30.24 853 25.19 -8.2 17.2 80 -11.1 12
04:20 1024 30.24 853 25.19 -8.2 17.3 80 -11.1 12.1
04:25 1024 30.24 853 25.19 -8.2 17.2 81 -11 12.3
04:30 1024 30.24 853 25.19 -8.3 17.1 81 -11 12.1
04:35 1024 30.24 854 25.22 -8.3 17.1 81 -11.1 12.1
04:40 1024 30.24 854 25.22 -8.6 16.6 81 -11.3 11.6
04:45 1024 30.24 854 25.22 -9 15.7 83 -11.5 11.4
04:50 1024 30.24 854 25.22 -9 15.8 82 -11.5 11.3
04:55 1024 30.24 854 25.22 -8.8 16.1 81 -11.5 11.4
05:00 1024 30.24 854 25.22 -8.7 16.3 82 -11.3 11.6
05:05 1024 30.24 853 25.19 -8.2 17.3 78 -11.3 11.6
05:10 1024 30.24 853 25.19 -8 17.7 78 -11.2 11.9
05:15 1024 30.24 853 25.19 -8.2 17.2 78 -11.3 11.6
05:20 1024 30.24 853 25.19 -8 17.6 78 -11.2 11.9
05:25 1024 30.24 853 25.19 -8.3 17 79 -11.4 11.5
05:30 1024 30.24 853 25.19 -8.7 16.3 80 -11.6 11.1
05:35 1024 30.24 853 25.19 -8.7 16.3 80 -11.7 11
05:40 1024 30.24 853 25.19 -8.4 16.9 77 -11.7 11
05:45 1024 30.24 853 25.19 -8.2 17.2 75 -11.9 10.7
05:50 1024 30.24 853 25.19 -7.9 17.8 74 -11.7 10.9
05:55 1024 30.24 854 25.22 -8 17.7 74 -11.9 10.7
06:00 1024 30.24 854 25.22 -7.9 17.8 73 -12 10.4
06:05 1024 30.24 853 25.19 -7.9 17.9 73 -11.9 10.5
06:10 1024 30.24 853 25.19 -8.1 17.4 74 -12.1 10.3
06:15 1024 30.24 853 25.19 -8.2 17.2 74 -12.1 10.1
06:20 1024 30.24 853 25.19 -8.5 16.8 76 -12 10.3
06:25 1024 30.24 854 25.22 -8.8 16.2 78 -12 10.4
06:30 1024 30.24 854 25.22 -8.7 16.3 77 -12.1 10.3
06:35 1024 30.24 854 25.22 -8.6 16.5 77 -11.9 10.5
06:40 1024 30.24 854 25.22 -8.9 16.1 78 -12 10.5
06:45 1025 30.27 854 25.22 -9.1 15.6 80 -12 10.4
06:50 1025 30.27 854 25.22 -9.1 15.6 79 -12 10.3
06:55 1025 30.27 854 25.22 -8.9 16 79 -12 10.4
07:00 1024 30.24 854 25.22 -9.1 15.7 79 -12.1 10.3
07:05 1024 30.24 854 25.22 -9.4 15 81 -12.2 10.1
07:10 1024 30.24 854 25.22 -9.7 14.6 80 -12.5 9.6
07:15 1024 30.24 854 25.22 -9.6 14.8 80 -12.3 9.8
07:20 1024 30.24 854 25.22 -9.1 15.7 78 -12.2 10
07:25 1024 30.24 854 25.22 -8.9 16 77 -12.3 9.9
07:30 1024 30.24 854 25.22 -8.9 16 76 -12.4 9.7
07:35 1024 30.24 853 25.19 -8.8 16.1 76 -12.4 9.8
07:40 1024 30.24 853 25.19 -8.9 15.9 77 -12.2 10
07:45 1024 30.24 853 25.19 -9.2 15.4 79 -12.3 9.9
07:50 1024 30.24 853 25.19 -9.5 15 79 -12.4 9.7
07:55 1024 30.24 853 25.19 -9.7 14.5 80 -12.5 9.5
08:00 1024 30.24 853 25.19 -9.8 14.5 80 -12.6 9.4
08:05 1024 30.24 853 25.19 -9.6 14.7 79 -12.6 9.3
08:10 1024 30.24 853 25.19 -9.8 14.4 80 -12.6 9.3
08:15 1024 30.24 853 25.19 -10 14.1 80 -12.7 9.1
08:20 1024 30.24 853 25.19 -9.7 14.5 79 -12.7 9.2
08:25 1024 30.24 853 25.19 -9.9 14.1 80 -12.7 9.1
08:30 1024 30.24 853 25.19 -9.8 14.3 79 -12.9 8.8
08:35 1024 30.24 853 25.19 -10.1 13.9 80 -12.9 8.8
08:40 1024 30.24 853 25.19 -10.3 13.4 81 -13 8.6
08:45 1024 30.24 853 25.19 -10.3 13.6 81 -13 8.6
08:50 1024 30.24 853 25.19 -10.2 13.6 81 -12.9 8.8
08:55 1024 30.24 853 25.19 -10.1 13.8 80 -12.9 8.7
09:00 1024 30.24 853 25.19 -10 14 80 -12.8 8.9
09:05 1024 30.24 853 25.19 -9.7 14.6 77 -12.9 8.8
09:10 1024 30.24 853 25.19 -9.3 15.2 76 -12.8 9
09:15 1024 30.24 853 25.19 -9.1 15.6 75 -12.8 9
09:20 1024 30.24 853 25.19 -9.1 15.7 75 -12.7 9.1
09:25 1024 30.24 853 25.19 -8.9 16 74 -12.8 9
09:30 1024 30.24 853 25.19 -8.9 16.1 74 -12.6 9.2
09:35 1024 30.24 853 25.19 -8.7 16.4 73 -12.6 9.3
09:40 1024 30.24 853 25.19 -8.3 17 73 -12.4 9.6
09:45 1024 30.24 853 25.19 -8 17.6 71 -12.4 9.6
09:50 1024 30.24 853 25.19 -7.9 17.9 70 -12.4 9.7
09:55 1024 30.24 853 25.19 -7.9 17.7 71 -12.2 10
10:00 1024 30.24 853 25.19 -7.5 18.4 69 -12.3 9.9
10:05 1024 30.24 853 25.19 -7.3 18.9 69 -12.1 10.2
10:10 1024 30.24 853 25.19 -7.2 19.1 69 -12 10.4
10:15 1024 30.24 853 25.19 -7.1 19.2 69 -11.9 10.6
10:20 1024 30.24 853 25.19 -6.8 19.7 67 -12 10.3
10:25 1024 30.24 853 25.19 -6.2 20.9 64 -11.9 10.6
10:30 1024 30.24 853 25.19 -5.6 22 62 -11.7 10.9
10:35 1024 30.24 853 25.19 -5.2 22.6 62 -11.4 11.4
10:40 1024 30.24 853 25.19 -5.1 22.9 60 -11.7 10.9
10:45 1024 30.24 853 25.19 -4.8 23.3 60 -11.4 11.4
10:50 1024 30.24 853 25.19 -4.5 23.8 60 -11.2 11.8
10:55 1024 30.24 853 25.19 -4.3 24.2 59 -11.2 11.9
11:00 1024 30.24 854 25.22 -4.5 23.8 59 -11.4 11.4
11:05 1024 30.24 854 25.22 -4.3 24.2 59 -11.2 11.8
11:10 1024 30.24 854 25.22 -3.8 25.1 57 -11.1 12
11:15 1024 30.24 854 25.22 -3.6 25.6 56 -11.1 11.9
11:20 1024 30.24 854 25.22 -3.6 25.6 56 -11.1 12.1
11:25 1024 30.24 854 25.22 -3.8 25.1 57 -11.1 12
11:30 1024 30.24 854 25.22 -3.8 25.2 58 -11 12.2
11:35 1024 30.24 854 25.22 -3.7 25.3 57 -11 12.2
11:40 1024 30.24 854 25.22 -4.1 24.6 57 -11.5 11.3
11:45 1024 30.24 854 25.22 -3.9 25 56 -11.5 11.3
11:50 1024 30.24 854 25.22 -3.6 25.5 54 -11.6 11.1
11:55 1024 30.24 854 25.22 -3.5 25.7 55 -11.2 11.9
12:00 1024 30.24 854 25.22 -3.1 26.4 53 -11.4 11.5
12:05 1024 30.24 854 25.22 -2.7 27.2 52 -11.3 11.7
12:10 1024 30.24 854 25.22 -2.8 27 53 -11.2 11.9
12:15 1024 30.24 853 25.19 -3 26.6 53 -11.2 11.8
12:20 1024 30.24 853 25.19 -3.1 26.5 51 -11.8 10.7
12:25 1024 30.24 853 25.19 -3.1 26.4 54 -11.2 11.9
12:30 1024 30.24 853 25.19 -3.1 26.4 53 -11.4 11.5
12:35 1024 30.24 853 25.19 -3 26.7 52 -11.6 11.2
12:40 1023 30.21 853 25.19 -2.9 26.7 54 -11.1 12.1
12:45 1023 30.21 852 25.16 -2.9 26.8 53 -11.1 11.9
12:50 1023 30.21 852 25.16 -2.6 27.4 52 -11.1 12
12:55 1023 30.21 852 25.16 -2.5 27.5 54 -10.5 13.1
13:00 1023 30.21 852 25.16 -2.4 27.6 54 -10.4 13.2
13:05 1023 30.21 852 25.16 -2.4 27.7 53 -10.6 13
13:10 1023 30.21 852 25.16 -1.9 28.6 51 -10.7 12.7
13:15 1023 30.21 852 25.16 -1.1 29.9 50 -10.4 13.3
13:20 1023 30.21 852 25.16 -1 30.3 50 -10.1 13.9
13:25 1023 30.21 852 25.16 -1 30.3 50 -10.2 13.7
13:30 1023 30.21 852 25.16 -1.3 29.6 52 -10 13.9
13:40 1023 30.21 852 25.16 -0.8 30.5 51 -9.7 14.6
13:45 1023 30.21 852 25.16 -0.6 30.9 51 -9.6 14.8
13:50 1022 30.18 852 25.16 -0.2 31.7 48 -9.9 14.2
13:55 1022 30.18 852 25.16 0.3 32.6 48 -9.4 15.1
14:00 1022 30.18 852 25.16 0.2 32.4 49 -9.3 15.3
14:05 1022 30.18 852 25.16 -0.2 31.6 49 -9.7 14.6
14:10 1022 30.18 852 25.16 -0.2 31.6 47 -10.2 13.6
14:15 1022 30.18 852 25.16 -0.3 31.4 47 -10.4 13.3
14:20 1022 30.18 852 25.16 -0.7 30.7 49 -10.3 13.5
14:25 1022 30.18 851 25.13 -1.1 30 49 -10.5 13.1
14:30 1022 30.18 851 25.13 -1.1 30 49 -10.4 13.3
14:35 1022 30.18 851 25.13 -1.2 29.9 49 -10.5 13.1
14:40 1022 30.18 851 25.13 -0.8 30.5 48 -10.4 13.2
14:45 1022 30.18 851 25.13 -0.6 31 48 -10.3 13.5
14:50 1022 30.18 851 25.13 -0.5 31.1 47 -10.5 13.1
14:55 1022 30.18 851 25.13 -0.4 31.2 47 -10.3 13.4
15:00 1022 30.18 851 25.13 -0.4 31.3 48 -10.1 13.9
15:05 1022 30.18 851 25.13 -0.5 31.1 49 -10 14.1
15:10 1022 30.18 851 25.13 -0.2 31.7 47 -10.3 13.5
15:15 1022 30.18 851 25.13 -0 31.9 47 -10.1 13.9
15:20 1022 30.18 851 25.13 -0.1 31.8 48 -9.8 14.3
15:25 1022 30.18 851 25.13 -0.3 31.4 48 -10 14.1
15:30 1022 30.18 851 25.13 -0.2 31.6 48 -10 13.9
15:35 1022 30.18 851 25.13 -0.3 31.4 48 -10 14
15:40 1021 30.15 851 25.13 -0.7 30.8 48 -10.5 13.2
15:45 1021 30.15 850 25.1 0 32 46 -10.3 13.5
15:50 1021 30.15 850 25.1 0.2 32.3 46 -10 13.9
15:55 1021 30.15 850 25.1 -0 32 49 -9.6 14.7
16:00 1021 30.15 850 25.1 -0.5 31.1 47 -10.5 13.1
16:05 1021 30.15 850 25.1 -0.6 31 48 -10.1 13.7
16:10 1021 30.15 850 25.1 -0.7 30.7 49 -10.3 13.5
16:15 1021 30.15 850 25.1 -0.6 30.9 49 -10.1 13.7
16:20 1021 30.15 850 25.1 -0.6 31 49 -10.1 13.9
16:25 1021 30.15 850 25.1 -0.5 31 49 -10 14
16:30 1021 30.15 850 25.1 -0.5 31.1 51 -9.6 14.8
16:35 1021 30.15 850 25.1 -0.8 30.6 55 -8.8 16.1
16:40 1021 30.15 850 25.1 -1.8 28.9 56 -9.3 15.2
16:45 1021 30.15 850 25.1 -2.2 28 58 -9.4 15.2
16:50 1021 30.15 850 25.1 -2.8 27 60 -9.5 15
16:55 1021 30.15 850 25.1 -2.5 27.5 58 -9.6 14.7
17:00 1021 30.15 850 25.1 -2.7 27.2 60 -9.4 15.2
17:05 1021 30.15 850 25.1 -2.9 26.7 60 -9.6 14.8
17:10 1021 30.15 850 25.1 -3.1 26.4 61 -9.6 14.7
17:15 1021 30.15 850 25.1 -3.2 26.2 62 -9.5 14.9
17:20 1021 30.15 850 25.1 -3.3 26.1 63 -9.4 15.1
17:25 1021 30.15 850 25.1 -3.3 26.1 62 -9.5 14.9
17:30 1021 30.15 850 25.1 -3.3 26 62 -9.5 14.9
17:35 1021 30.15 850 25.1 -3.6 25.5 64 -9.4 15
17:40 1021 30.15 850 25.1 -3.7 25.3 65 -9.4 15.1
17:45 1021 30.15 850 25.1 -3.7 25.4 65 -9.4 15
17:50 1021 30.15 850 25.1 -3.9 25 65 -9.4 15
17:55 1021 30.15 850 25.1 -3.9 24.9 66 -9.5 15
18:00 1021 30.15 850 25.1 -3.9 25 64 -9.8 14.4
18:05 1021 30.15 850 25.1 -4.1 24.7 64 -9.9 14.2
18:10 1021 30.15 850 25.1 -4.2 24.5 65 -9.8 14.3
18:15 1021 30.15 850 25.1 -4 24.7 65 -9.8 14.4
18:20 1021 30.15 850 25.1 -4.2 24.4 66 -9.6 14.8
18:25 1021 30.15 850 25.1 -4.4 24.1 67 -9.7 14.6
18:30 1021 30.15 850 25.1 -4.5 23.8 67 -9.7 14.5
18:35 1021 30.15 850 25.1 -4.7 23.5 68 -9.8 14.4
18:40 1021 30.15 850 25.1 -4.6 23.7 68 -9.7 14.5
18:45 1021 30.15 850 25.1 -4.6 23.7 68 -9.7 14.6
18:50 1021 30.15 850 25.1 -4.6 23.7 68 -9.6 14.8
18:55 1021 30.15 850 25.1 -5 23.1 70 -9.6 14.8
19:00 1021 30.15 850 25.1 -5.3 22.5 72 -9.6 14.7
19:05 1021 30.15 850 25.1 -5.6 21.8 72 -9.9 14.2
19:10 1021 30.15 850 25.1 -5.8 21.6 73 -10 14
19:15 1021 30.15 850 25.1 -5.9 21.3 72 -10.2 13.6
19:20 1021 30.15 850 25.1 -5.8 21.6 72 -10.1 13.8
19:25 1021 30.15 850 25.1 -5.4 22.3 69 -10.2 13.6
19:30 1021 30.15 850 25.1 -5.5 22.2 71 -9.9 14.2
19:35 1021 30.15 850 25.1 -5.7 21.7 73 -9.8 14.3
19:40 1021 30.15 850 25.1 -5.9 21.3 73 -10.1 13.8
19:45 1021 30.15 850 25.1 -5.9 21.3 72 -10.1 13.7
19:50 1021 30.15 850 25.1 -5.6 21.9 70 -10.3 13.5
19:55 1021 30.15 850 25.1 -5.5 22.1 70 -10.2 13.7
20:00 1021 30.15 850 25.1 -5.5 22.2 70 -10.1 13.8
20:05 1021 30.15 850 25.1 -5.8 21.6 71 -10.2 13.6
20:10 1021 30.15 850 25.1 -6.2 20.9 74 -10.1 13.9
20:15 1021 30.15 850 25.1 -6.2 20.8 74 -10.1 13.8
20:20 1021 30.15 850 25.1 -6.3 20.7 74 -10.2 13.6
20:25 1021 30.15 850 25.1 -6.4 20.5 74 -10.2 13.6
20:30 1021 30.15 850 25.1 -6.2 20.8 74 -10.2 13.7
20:35 1021 30.15 850 25.1 -6.3 20.6 75 -10 13.9
20:40 1021 30.15 850 25.1 -6.4 20.5 76 -10 14
20:45 1021 30.15 850 25.1 -6.3 20.7 75 -9.9 14.1
20:50 1021 30.15 850 25.1 -6.3 20.6 75 -10 14
20:55 1021 30.15 850 25.1 -6.4 20.5 76 -9.9 14.1
21:00 1021 30.15 850 25.1 -6.5 20.3 77 -10 14
21:05 1021 30.15 850 25.1 -6.6 20.2 77 -10 14
21:10 1021 30.15 850 25.1 -6.5 20.4 75 -10.1 13.8
21:15 1021 30.15 850 25.1 -6.3 20.7 75 -10.1 13.9
21:20 1021 30.15 850 25.1 -6.4 20.4 74 -10.3 13.4
21:25 1021 30.15 850 25.1 -6.4 20.4 74 -10.4 13.3
21:30 1021 30.15 850 25.1 -6.3 20.6 73 -10.4 13.3
21:35 1021 30.15 850 25.1 -6.1 21.1 71 -10.4 13.2
21:40 1020 30.12 850 25.1 -5.6 21.8 70 -10.3 13.5
21:45 1020 30.12 850 25.1 -6.1 21.1 72 -10.4 13.3
21:50 1020 30.12 850 25.1 -6.4 20.5 73 -10.5 13.1
21:55 1020 30.12 850 25.1 -6.5 20.4 73 -10.5 13
22:00 1020 30.12 850 25.1 -6.5 20.2 74 -10.5 13.1
22:05 1020 30.12 849 25.07 -6.5 20.4 73 -10.5 13.1
22:10 1020 30.12 849 25.07 -6.2 20.8 71 -10.6 13
22:15 1020 30.12 849 25.07 -6.2 20.9 72 -10.5 13.1
22:20 1020 30.12 849 25.07 -6.1 21 71 -10.7 12.8
22:25 1020 30.12 849 25.07 -6 21.2 70 -10.5 13
22:30 1020 30.12 850 25.1 -6.2 20.8 71 -10.7 12.7
22:35 1020 30.12 850 25.1 -6.4 20.5 71 -10.8 12.6
22:40 1020 30.12 850 25.1 -6.4 20.5 72 -10.7 12.7
22:45 1020 30.12 850 25.1 -6.4 20.5 71 -10.8 12.6
22:50 1020 30.12 850 25.1 -6.6 20.2 72 -10.9 12.4
22:55 1020 30.12 850 25.1 -6.6 20.2 71 -11 12.2
23:00 1020 30.12 850 25.1 -6.5 20.4 71 -11 12.3
23:05 1020 30.12 850 25.1 -6.5 20.3 71 -11 12.3
23:10 1020 30.12 850 25.1 -6.4 20.4 70 -11 12.2
23:15 1020 30.12 850 25.1 -6.4 20.5 70 -11 12.2
23:20 1020 30.12 850 25.1 -6.3 20.6 69 -11.1 12.1
23:25 1020 30.12 850 25.1 -6.4 20.4 70 -11 12.1
23:30 1020 30.12 850 25.1 -6.7 20 70 -11.2 11.8
23:35 1020 30.12 850 25.1 -6.7 19.9 70 -11.4 11.5
23:40 1021 30.15 850 25.1 -6.7 20 69 -11.4 11.5
23:45 1021 30.15 850 25.1 -7 19.5 69 -11.6 11
23:50 1021 30.15 850 25.1 -6.8 19.8 70 -11.4 11.4
23:55 1021 30.15 850 25.1 -6.5 20.3 70 -11.2 11.9
24:00 1020 30.12 850 25.1 -6.1 21 68 -11.1 12